Time;durP1;ratioP1;P1;durP2;ratioP2;P2;SDS_P1;SDS_P2;PMS_P1;PMS_P2;Temp;Humidity;BMP_temperature;BMP_pressure;BME280_temperature;BME280_humidity;BME280_pressure;Samples;Min_cycle;Max_cycle;Signal;HPM_P1;HPM_P2
2024/02/25 00:00:03;;;;;;;;;7.17;7.17;;;;;8.73;69.94;100083.34;2019456;28;2742990;-75
2024/02/25 00:01:17;;;;;;;;;5.17;4.50;;;;;8.72;69.81;100080.75;2017323;28;2746162;-75
2024/02/25 00:02:31;;;;;;;;;5.83;5.00;;;;;8.71;70.35;100090.41;2002312;28;2752349;-75
2024/02/25 00:03:44;;;;;;;;;5.33;4.33;;;;;8.74;69.96;100078.97;2026855;28;2741956;-75
2024/02/25 00:04:58;;;;;;;;;5.17;4.83;;;;;8.74;69.83;100073.72;2002326;28;2750741;-75
2024/02/25 00:06:11;;;;;;;;;5.00;5.00;;;;;8.73;69.88;100072.88;2027433;27;2748697;-75
2024/02/25 00:07:24;;;;;;;;;5.83;5.83;;;;;8.76;69.90;100077.13;2003129;28;2746160;-75
2024/02/25 00:08:37;;;;;;;;;5.17;3.83;;;;;8.75;69.85;100075.41;2026577;28;2749241;-75
2024/02/25 00:09:51;;;;;;;;;4.67;4.67;;;;;8.74;70.05;100073.72;1995069;28;2743351;-75
2024/02/25 00:11:05;;;;;;;;;6.33;4.83;;;;;8.69;69.96;100066.03;2018468;28;2746123;-75
2024/02/25 00:12:18;;;;;;;;;6.17;5.50;;;;;8.69;69.90;100075.66;2003374;28;2748174;-75
2024/02/25 00:13:31;;;;;;;;;6.17;5.67;;;;;8.67;69.89;100083.53;2026496;27;2747141;-75
2024/02/25 00:14:42;;;;;;;;;8.33;5.00;;;;;8.69;70.08;100087.00;1991065;28;2762900;-75
2024/02/25 00:15:53;;;;;;;;;5.00;5.00;;;;;8.66;69.77;100087.09;2016993;28;2754448;-75
2024/02/25 00:17:06;;;;;;;;;5.00;5.00;;;;;8.69;69.64;100083.50;2003500;28;2744024;-75
2024/02/25 00:18:20;;;;;;;;;6.67;6.17;;;;;8.63;69.58;100088.06;2002668;28;2746102;-75
2024/02/25 00:19:33;;;;;;;;;6.33;4.67;;;;;8.64;69.84;100087.13;2003618;28;2740907;-75
2024/02/25 00:20:46;;;;;;;;;4.67;4.67;;;;;8.61;69.63;100083.78;2024914;28;2746099;-75
2024/02/25 00:21:59;;;;;;;;;5.00;5.00;;;;;8.62;70.14;100088.94;1993633;27;2745779;-75
2024/02/25 00:23:12;;;;;;;;;5.83;5.83;;;;;8.59;69.81;100085.59;2019031;28;2754479;-75
2024/02/25 00:24:25;;;;;;;;;5.00;5.00;;;;;8.59;69.78;100090.84;2026088;28;2752411;-75
2024/02/25 00:25:39;;;;;;;;;6.00;5.67;;;;;8.61;69.81;100094.25;2026003;28;2748178;-75
2024/02/25 00:26:52;;;;;;;;;5.67;5.17;;;;;8.59;70.07;100090.84;2026243;28;2746099;-75
2024/02/25 00:28:05;;;;;;;;;5.83;5.83;;;;;8.57;69.43;100087.41;2017345;27;2748206;-75
2024/02/25 00:29:18;;;;;;;;;4.67;4.67;;;;;8.55;69.66;100088.28;2018930;28;2752388;-75
2024/02/25 00:30:32;;;;;;;;;5.50;4.33;;;;;8.54;69.96;100083.13;2026114;28;2744037;-75
2024/02/25 00:31:45;;;;;;;;;9.33;5.00;;;;;8.57;70.00;100093.47;2025949;28;2761755;-75
2024/02/25 00:32:58;;;;;;;;;5.67;4.50;;;;;8.54;69.67;100097.03;2026080;28;2745049;-75
2024/02/25 00:34:11;;;;;;;;;6.33;4.67;;;;;8.51;70.05;100086.69;2025513;28;2746117;-75
2024/02/25 00:35:25;;;;;;;;;6.83;6.83;;;;;8.52;69.68;100091.00;2026410;28;2745089;-75
2024/02/25 00:36:41;;;;;;;;;5.00;5.00;;;;;8.50;69.72;100092.81;2017697;27;2754435;-75
2024/02/25 00:37:54;;;;;;;;;5.83;5.67;;;;;8.49;69.85;100085.91;2020129;27;2746130;-75
2024/02/25 00:39:08;;;;;;;;;5.50;5.50;;;;;8.50;69.91;100090.22;2016095;28;2752349;-75
2024/02/25 00:40:19;;;;;;;;;5.33;5.33;;;;;8.49;69.77;100096.38;1993584;28;2750288;-75
2024/02/25 00:41:30;;;;;;;;;6.00;3.00;;;;;8.49;69.91;100101.63;2025076;28;2754452;-75
2024/02/25 00:42:43;;;;;;;;;6.67;5.83;;;;;8.48;69.60;100096.41;2004690;28;2748210;-75
2024/02/25 00:43:56;;;;;;;;;5.67;5.33;;;;;8.48;69.80;100099.03;1993916;28;2748230;-75
2024/02/25 00:45:09;;;;;;;;;7.67;4.50;;;;;8.42;70.12;100090.47;2017970;28;2744062;-75
2024/02/25 00:46:23;;;;;;;;;6.00;5.00;;;;;8.43;69.94;100091.34;2018584;28;2750316;-75
2024/02/25 00:47:36;;;;;;;;;7.83;6.33;;;;;8.40;69.75;100097.53;2026160;28;2743010;-75
2024/02/25 00:48:46;;;;;;;;;7.33;5.00;;;;;8.40;70.06;100089.66;2000327;28;2754970;-75
2024/02/25 00:49:57;;;;;;;;;6.33;5.00;;;;;8.42;69.74;100100.94;2025391;28;2746146;-75
2024/02/25 00:51:11;;;;;;;;;3.33;3.33;;;;;8.40;69.67;100100.16;1993838;28;2754463;-75
2024/02/25 00:52:27;;;;;;;;;5.50;5.17;;;;;8.38;69.90;100096.72;2003047;27;2748237;-75
2024/02/25 00:53:40;;;;;;;;;5.00;5.00;;;;;8.40;70.18;100100.16;2001218;28;2746110;-75
2024/02/25 00:54:54;;;;;;;;;6.33;5.17;;;;;8.39;70.28;100102.84;2000841;28;2748208;-75
2024/02/25 00:56:07;;;;;;;;;5.33;5.33;;;;;8.36;70.17;100100.31;2027456;28;2747141;-75
2024/02/25 00:57:20;;;;;;;;;6.17;5.00;;;;;8.37;70.05;100102.88;2024630;27;2748170;-75
2024/02/25 00:58:35;;;;;;;;;4.50;4.50;;;;;8.36;70.36;100097.69;1999411;28;2752398;-75
2024/02/25 00:59:49;;;;;;;;;3.33;3.33;;;;;8.35;70.23;100091.59;2026538;28;2750264;-75
2024/02/25 01:01:02;;;;;;;;;5.17;3.67;;;;;8.35;70.31;100098.59;2027016;28;2750321;-75
2024/02/25 01:02:15;;;;;;;;;5.83;4.83;;;;;8.36;70.38;100095.06;2003961;27;2750289;-75
2024/02/25 01:03:29;;;;;;;;;4.17;2.83;;;;;8.34;70.70;100095.13;2003651;28;2754452;-75
2024/02/25 01:04:39;;;;;;;;;5.00;4.00;;;;;8.37;70.39;100096.78;2001630;28;2754942;-75
2024/02/25 01:05:50;;;;;;;;;6.00;4.00;;;;;8.36;70.53;100092.44;2026537;28;2741933;-75
2024/02/25 01:07:03;;;;;;;;;4.00;4.00;;;;;8.37;69.82;100096.78;2027256;28;2754444;-75
2024/02/25 01:08:17;;;;;;;;;5.00;4.00;;;;;8.36;70.03;100100.31;2019253;28;2739854;-75
2024/02/25 01:09:30;;;;;;;;;5.33;4.00;;;;;8.32;70.25;100094.34;2020484;28;2748186;-75
2024/02/25 01:10:43;;;;;;;;;2.50;2.50;;;;;8.30;70.39;100089.13;2003645;28;2739861;-75
2024/02/25 01:11:57;;;;;;;;;5.17;4.67;;;;;8.33;70.47;100093.41;2027098;28;2747179;-75
2024/02/25 01:13:10;;;;;;;;;4.17;3.50;;;;;8.33;70.25;100094.28;2004321;28;2745549;-75
2024/02/25 01:14:24;;;;;;;;;5.00;3.67;;;;;8.31;70.11;100088.25;2027304;27;2752356;-75
2024/02/25 01:15:34;;;;;;;;;5.00;4.00;;;;;8.33;70.26;100085.56;1978461;28;2747164;-75
2024/02/25 01:16:49;;;;;;;;;5.67;3.67;;;;;8.33;70.49;100089.03;2027090;28;2744008;-75
2024/02/25 01:18:02;;;;;;;;;4.50;4.50;;;;;8.34;70.46;100092.50;2003797;27;2740891;-75
2024/02/25 01:19:14;;;;;;;;;5.00;4.00;;;;;8.31;70.10;100083.00;2001592;28;2746177;-75
2024/02/25 01:20:24;;;;;;;;;4.00;4.00;;;;;8.33;70.19;100083.81;2000985;28;2754457;-75
2024/02/25 01:21:35;;;;;;;;;4.33;3.67;;;;;8.31;70.07;100083.00;2021823;28;2750268;-75
2024/02/25 01:22:48;;;;;;;;;4.50;4.50;;;;;8.32;70.41;100079.47;2005612;28;2739856;-75
2024/02/25 01:24:02;;;;;;;;;6.50;4.00;;;;;8.35;70.24;100085.50;2002710;28;2747636;-75
2024/02/25 01:25:13;;;;;;;;;5.00;5.00;;;;;8.33;70.41;100077.69;1992969;27;2752368;-75
2024/02/25 01:26:24;;;;;;;;;5.00;5.00;;;;;8.36;70.12;100084.59;2018592;28;2747175;-75
2024/02/25 01:27:38;;;;;;;;;5.50;5.50;;;;;8.32;70.45;100079.47;2003835;27;2747184;-75
2024/02/25 01:28:54;;;;;;;;;7.00;5.00;;;;;8.32;70.10;100083.88;2002983;28;2749208;-75
2024/02/25 01:30:10;;;;;;;;;4.67;3.50;;;;;8.35;70.06;100085.50;2027061;27;2754447;-75
2024/02/25 01:31:23;;;;;;;;;4.33;3.00;;;;;8.30;70.61;100075.19;2026976;28;2751302;-75
2024/02/25 01:32:36;;;;;;;;;4.00;4.00;;;;;8.32;70.10;100079.47;2004074;28;2746147;-75
2024/02/25 01:33:49;;;;;;;;;5.00;5.00;;;;;8.33;70.16;100082.94;2017802;28;2752392;-75
2024/02/25 01:35:03;;;;;;;;;4.67;4.33;;;;;8.31;70.85;100077.75;1996157;28;2754459;-75
2024/02/25 01:36:16;;;;;;;;;4.67;4.00;;;;;8.35;70.53;100077.63;2027570;28;2751330;-75
2024/02/25 01:37:30;;;;;;;;;6.17;6.17;;;;;8.31;70.13;100075.16;2027184;28;2743010;-75
2024/02/25 01:38:43;;;;;;;;;3.33;3.33;;;;;8.32;70.26;100076.84;2003518;28;2754483;-75
2024/02/25 01:39:56;;;;;;;;;5.83;5.50;;;;;8.33;70.91;100073.31;2003610;28;2746127;-75
2024/02/25 01:41:07;;;;;;;;;4.67;4.67;;;;;8.33;70.86;100062.84;2001512;28;2752348;-75
2024/02/25 01:42:19;;;;;;;;;6.50;5.75;;;;;8.38;70.73;100074.91;2025839;28;2746113;-75
2024/02/25 01:43:39;;;;;;;;;8.33;5.50;;;;;8.37;70.21;100068.81;2003008;28;2754908;-75
2024/02/25 01:44:59;;;;;;;;;5.50;5.33;;;;;8.39;70.50;100074.88;2027250;28;2745050;-75
2024/02/25 01:46:12;;;;;;;;;7.17;4.17;;;;;8.37;70.19;100070.59;2018672;28;2746098;-75
2024/02/25 01:47:27;;;;;;;;;3.33;3.33;;;;;8.37;70.74;100066.19;2025636;28;2754506;-75
2024/02/25 01:48:41;;;;;;;;;4.00;4.00;;;;;8.41;70.49;100072.19;2026319;27;2751299;-75
2024/02/25 01:49:55;;;;;;;;;2.83;2.83;;;;;8.40;70.55;100071.34;2027248;28;2752396;-75
2024/02/25 01:51:08;;;;;;;;;5.83;5.17;;;;;8.40;70.30;100065.25;2026904;28;2754416;-75
2024/02/25 01:52:24;;;;;;;;;5.00;3.83;;;;;8.40;70.37;100060.00;2027207;28;2752356;-75
2024/02/25 01:53:37;;;;;;;;;5.00;4.67;;;;;8.40;70.25;100067.84;2004130;28;2750277;-75
2024/02/25 01:54:51;;;;;;;;;6.17;4.50;;;;;8.41;70.39;100066.97;2004516;28;2741941;-75
2024/02/25 01:56:05;;;;;;;;;4.00;4.00;;;;;8.42;70.13;100063.44;2024906;28;2754448;-75
2024/02/25 01:57:18;;;;;;;;;5.50;5.50;;;;;8.40;70.51;100067.84;2004100;28;2736728;-76
2024/02/25 01:58:32;;;;;;;;;4.83;4.17;;;;;8.42;70.21;100066.91;2018603;28;2742970;-75
2024/02/25 01:59:46;;;;;;;;;5.67;4.83;;;;;8.40;70.10;100065.25;2019767;28;2750306;-76
2024/02/25 02:01:00;;;;;;;;;4.50;3.50;;;;;8.42;70.03;100066.91;2018243;28;2739181;-75
2024/02/25 02:02:13;;;;;;;;;4.83;3.67;;;;;8.40;70.21;100060.88;1989261;28;2748548;-75
2024/02/25 02:03:27;;;;;;;;;5.50;4.00;;;;;8.40;70.49;100070.47;2019982;28;2742982;-75
2024/02/25 02:04:43;;;;;;;;;5.67;3.67;;;;;8.39;70.15;100066.16;2026984;28;2743033;-75
2024/02/25 02:05:56;;;;;;;;;5.17;4.17;;;;;8.39;70.31;100064.41;2001564;28;2740911;-75
2024/02/25 02:07:12;;;;;;;;;4.33;3.17;;;;;8.38;69.94;100069.69;2003537;28;2747640;-75
2024/02/25 02:08:25;;;;;;;;;3.50;3.33;;;;;8.38;70.63;100064.44;2027572;28;2744043;-75
2024/02/25 02:09:38;;;;;;;;;3.50;3.50;;;;;8.35;70.50;100056.69;2002767;27;2752380;-75
2024/02/25 02:10:51;;;;;;;;;2.50;2.50;;;;;8.36;70.43;100063.66;2026412;28;2745048;-75
2024/02/25 02:12:06;;;;;;;;;3.50;3.50;;;;;8.35;70.16;100067.16;2025976;28;2754483;-75
2024/02/25 02:13:19;;;;;;;;;4.33;4.17;;;;;8.33;69.95;100056.75;2003956;28;2746103;-75
2024/02/25 02:14:33;;;;;;;;;4.83;4.83;;;;;8.31;70.32;100059.44;2004357;28;2737785;-75
2024/02/25 02:15:46;;;;;;;;;5.00;4.00;;;;;8.33;69.87;100060.22;2025830;28;2741976;-75
2024/02/25 02:17:01;;;;;;;;;4.00;4.00;;;;;8.29;69.91;100053.41;2026445;28;2739858;-75
2024/02/25 02:18:16;;;;;;;;;5.17;4.50;;;;;8.30;70.20;100055.09;2026749;28;2745089;-75
2024/02/25 02:19:29;;;;;;;;;4.00;4.00;;;;;8.30;70.28;100055.09;2026953;28;2754436;-75
2024/02/25 02:20:44;;;;;;;;;5.17;4.00;;;;;8.31;70.23;100061.19;2018791;28;2739860;-75
2024/02/25 02:21:58;;;;;;;;;4.17;4.00;;;;;8.28;69.88;100050.81;1997062;28;2752493;-75
2024/02/25 02:23:11;;;;;;;;;5.00;5.00;;;;;8.27;70.31;100049.94;2027430;28;2744072;-75
2024/02/25 02:24:24;;;;;;;;;5.33;5.33;;;;;8.27;70.38;100049.94;2018424;28;2752444;-75
2024/02/25 02:25:37;;;;;;;;;4.33;3.33;;;;;8.28;70.25;100059.53;2019353;28;2754463;-75
2024/02/25 02:26:51;;;;;;;;;4.67;4.67;;;;;8.26;70.04;100056.13;2003584;28;2754442;-75
2024/02/25 02:28:04;;;;;;;;;4.83;4.00;;;;;8.26;70.09;100058.72;2026101;28;2748189;-75
2024/02/25 02:29:17;;;;;;;;;7.33;3.67;;;;;8.26;70.55;100056.13;2002972;28;2754475;-75
2024/02/25 02:30:30;;;;;;;;;3.83;3.67;;;;;8.25;70.29;100057.00;2026528;28;2748170;-75
2024/02/25 02:31:44;;;;;;;;;4.00;4.00;;;;;8.25;69.97;100050.94;1993625;28;2752350;-75
2024/02/25 02:32:57;;;;;;;;;4.00;4.00;;;;;8.24;70.21;100054.44;2009637;28;2747160;-75
2024/02/25 02:34:10;;;;;;;;;6.67;3.50;;;;;8.25;70.02;100045.72;2015982;28;2749601;-75
2024/02/25 02:35:23;;;;;;;;;6.50;5.50;;;;;8.22;69.98;100051.91;2025677;28;2745053;-75
2024/02/25 02:36:36;;;;;;;;;7.50;6.00;;;;;8.21;70.15;100050.19;2027024;28;2746162;-75
2024/02/25 02:37:49;;;;;;;;;4.67;4.00;;;;;8.22;70.21;100054.53;2016886;28;2739856;-75
2024/02/25 02:39:04;;;;;;;;;5.67;5.17;;;;;8.21;70.27;100060.66;2019199;28;2754444;-75
2024/02/25 02:40:17;;;;;;;;;3.67;2.83;;;;;8.21;70.53;100055.41;2026517;28;2754432;-75
2024/02/25 02:41:32;;;;;;;;;4.33;3.33;;;;;8.21;70.52;100061.50;2003354;28;2752414;-75
2024/02/25 02:42:47;;;;;;;;;3.50;3.50;;;;;8.20;70.00;100053.69;2003258;28;2754435;-75
2024/02/25 02:44:00;;;;;;;;;6.50;5.00;;;;;8.17;70.48;100054.66;2026865;28;2747162;-75
2024/02/25 02:45:13;;;;;;;;;5.83;3.50;;;;;8.17;69.94;100051.19;2018352;28;2744063;-75
2024/02/25 02:46:27;;;;;;;;;4.00;4.00;;;;;8.17;70.05;100049.41;2020236;28;2749277;-75
2024/02/25 02:47:40;;;;;;;;;6.50;4.00;;;;;8.20;69.90;100048.44;2026563;28;2745037;-75
2024/02/25 02:48:53;;;;;;;;;4.83;4.50;;;;;8.18;70.32;100050.28;2003782;28;2750273;-75
2024/02/25 02:50:07;;;;;;;;;8.67;3.00;;;;;8.19;70.68;100052.00;1994564;28;2741948;-75
2024/02/25 02:51:21;;;;;;;;;3.00;3.00;;;;;8.17;70.62;100048.59;2018683;28;2746496;-75
2024/02/25 02:52:34;;;;;;;;;3.00;3.00;;;;;8.20;70.24;100058.94;2020044;28;2741936;-75
2024/02/25 02:53:47;;;;;;;;;6.50;4.33;;;;;8.16;70.12;100045.09;2026840;28;2746145;-75
2024/02/25 02:55:00;;;;;;;;;3.00;3.00;;;;;8.16;70.26;100045.09;2017969;28;2746145;-75
2024/02/25 02:56:13;;;;;;;;;4.00;4.00;;;;;8.17;70.02;100041.56;2019153;28;2748194;-75
2024/02/25 02:57:27;;;;;;;;;6.17;4.00;;;;;8.18;70.34;100039.81;2026368;28;2754440;-75
2024/02/25 02:58:40;;;;;;;;;2.17;2.17;;;;;8.18;70.60;100034.56;2003828;28;2739853;-75
2024/02/25 02:59:53;;;;;;;;;3.17;3.17;;;;;8.19;70.31;100031.91;2004139;28;2736234;-75
2024/02/25 03:01:06;;;;;;;;;4.67;4.67;;;;;8.21;70.72;100034.47;2027433;28;2739887;-75
2024/02/25 03:02:20;;;;;;;;;5.00;3.67;;;;;8.22;70.59;100030.97;2016763;28;2750257;-75
2024/02/25 03:03:33;;;;;;;;;4.67;3.33;;;;;8.21;70.74;100026.63;1996402;28;2752356;-75
2024/02/25 03:04:46;;;;;;;;;5.00;4.00;;;;;8.23;70.33;100024.78;2018488;28;2735742;-75
2024/02/25 03:05:59;;;;;;;;;6.00;3.33;;;;;8.25;70.71;100040.47;2018777;28;2737820;-75
2024/02/25 03:07:12;;;;;;;;;5.50;3.00;;;;;8.29;70.92;100036.81;2017263;27;2754428;-75
2024/02/25 03:08:26;;;;;;;;;5.67;4.17;;;;;8.29;70.81;100040.31;2026619;28;2741981;-75
2024/02/25 03:09:39;;;;;;;;;3.67;3.67;;;;;8.29;70.85;100029.84;2019506;28;2745053;-75
2024/02/25 03:10:51;;;;;;;;;4.33;4.00;;;;;8.32;70.70;100039.34;2006625;28;2754528;-75
2024/02/25 03:12:04;;;;;;;;;5.00;3.33;;;;;8.35;70.84;100033.13;2032979;28;2752344;-75
2024/02/25 03:13:18;;;;;;;;;5.33;4.33;;;;;8.35;70.65;100030.50;2003829;28;2741972;-75
2024/02/25 03:14:31;;;;;;;;;5.33;4.17;;;;;8.36;70.70;100029.59;2017403;28;2742973;-75
2024/02/25 03:15:44;;;;;;;;;5.50;3.83;;;;;8.39;70.90;100035.59;2019205;28;2739841;-75
2024/02/25 03:16:57;;;;;;;;;4.33;4.00;;;;;8.40;70.88;100028.56;2027198;28;2740910;-75
2024/02/25 03:18:10;;;;;;;;;6.00;3.50;;;;;8.39;70.63;100026.88;2003369;28;2736774;-75
2024/02/25 03:19:23;;;;;;;;;4.67;3.00;;;;;8.43;70.83;100031.09;2018481;28;2732550;-75
2024/02/25 03:20:37;;;;;;;;;4.67;4.00;;;;;8.44;70.69;100032.81;2018510;28;2751327;-75
2024/02/25 03:21:48;;;;;;;;;6.33;5.00;;;;;8.47;70.21;100037.09;1999685;28;2746105;-75
2024/02/25 03:23:01;;;;;;;;;4.00;4.00;;;;;8.44;70.32;100028.41;2026839;27;2752856;-75
2024/02/25 03:24:14;;;;;;;;;4.00;4.00;;;;;8.45;70.29;100026.66;2026785;28;2754427;-75
2024/02/25 03:25:28;;;;;;;;;4.00;4.00;;;;;8.45;70.78;100018.78;1995172;28;2737137;-75
2024/02/25 03:26:41;;;;;;;;;5.17;3.50;;;;;8.48;70.78;100026.56;2017139;28;2741928;-75
2024/02/25 03:27:54;;;;;;;;;4.67;4.00;;;;;8.48;70.60;100026.56;2023528;27;2752363;-75
2024/02/25 03:29:07;;;;;;;;;6.33;4.83;;;;;8.49;70.66;100020.41;2002379;28;2752363;-75
2024/02/25 03:30:21;;;;;;;;;4.17;3.83;;;;;8.50;70.86;100021.25;2003654;28;2750281;-75
2024/02/25 03:31:34;;;;;;;;;5.67;4.17;;;;;8.51;70.48;100015.97;2026380;28;2739845;-75
2024/02/25 03:32:47;;;;;;;;;5.33;4.83;;;;;8.53;70.19;100022.00;2003687;28;2743024;-75
2024/02/25 03:33:58;;;;;;;;;4.00;4.00;;;;;8.52;69.99;100024.69;1977011;27;2754432;-75
2024/02/25 03:35:09;;;;;;;;;4.00;3.33;;;;;8.51;69.76;100015.13;2026489;28;2742981;-75
2024/02/25 03:36:22;;;;;;;;;4.67;4.00;;;;;8.49;70.35;100017.81;2026976;28;2734654;-75
2024/02/25 03:37:35;;;;;;;;;4.17;3.83;;;;;8.52;70.06;100022.91;2025878;28;2742046;-75
2024/02/25 03:38:48;;;;;;;;;4.50;4.50;;;;;8.51;70.45;100022.97;2018169;28;2744079;-75
2024/02/25 03:40:02;;;;;;;;;6.00;4.00;;;;;8.54;70.54;100026.31;2018147;28;2754435;-75
2024/02/25 03:41:18;;;;;;;;;6.17;4.50;;;;;8.53;70.05;100014.16;2018162;28;2739856;-75
2024/02/25 03:42:31;;;;;;;;;4.17;4.17;;;;;8.53;70.28;100018.53;2019652;28;2733600;-75
2024/02/25 03:43:44;;;;;;;;;4.83;4.83;;;;;8.52;69.70;100022.91;2026992;28;2741921;-75
2024/02/25 03:44:57;;;;;;;;;4.33;3.83;;;;;8.53;70.47;100016.78;2004032;28;2739873;-75
2024/02/25 03:46:10;;;;;;;;;2.50;2.50;;;;;8.55;70.29;100022.81;2001033;28;2739852;-75
2024/02/25 03:47:24;;;;;;;;;5.17;4.00;;;;;8.55;70.28;100012.31;2026299;27;2737063;-75
2024/02/25 03:48:37;;;;;;;;;5.17;5.17;;;;;8.54;70.15;100017.63;2001845;28;2741957;-75
2024/02/25 03:49:50;;;;;;;;;6.00;5.83;;;;;8.54;70.19;100017.63;1995718;28;2746107;-75
2024/02/25 03:51:03;;;;;;;;;3.50;3.50;;;;;8.55;70.42;100016.69;2020271;28;2738819;-75
2024/02/25 03:52:15;;;;;;;;;7.67;3.00;;;;;8.54;70.41;100018.47;2000612;28;2746541;-75
2024/02/25 03:53:28;;;;;;;;;3.00;2.00;;;;;8.57;70.14;100016.66;2026443;27;2739881;-75
2024/02/25 03:54:45;;;;;;;;;5.00;3.83;;;;;8.55;70.27;100012.31;2026588;28;2736748;-75
2024/02/25 03:55:58;;;;;;;;;5.00;4.00;;;;;8.56;69.93;100015.81;2026273;28;2752395;-75
2024/02/25 03:57:12;;;;;;;;;4.33;4.33;;;;;8.55;69.91;100017.56;2026345;28;2746098;-75
2024/02/25 03:58:25;;;;;;;;;4.00;4.00;;;;;8.59;70.08;100020.97;2026169;28;2746091;-75
2024/02/25 03:59:38;;;;;;;;;5.00;5.00;;;;;8.55;69.81;100017.56;2026358;28;2748219;-75
2024/02/25 04:00:51;;;;;;;;;5.67;4.50;;;;;8.57;69.86;100019.28;2025600;28;2748671;-75
2024/02/25 04:02:05;;;;;;;;;4.67;4.67;;;;;8.60;69.99;100016.56;2002854;28;2750666;-75
2024/02/25 04:03:18;;;;;;;;;6.00;3.33;;;;;8.57;69.77;100014.06;2024625;28;2741950;-75
2024/02/25 04:04:31;;;;;;;;;5.00;4.50;;;;;8.58;70.05;100018.34;2026469;28;2739849;-75
2024/02/25 04:05:44;;;;;;;;;4.00;4.00;;;;;8.61;69.94;100020.91;2024676;28;2747167;-75
2024/02/25 04:06:57;;;;;;;;;7.17;4.00;;;;;8.54;69.67;100010.59;2025890;28;2744057;-75
2024/02/25 04:08:11;;;;;;;;;5.00;5.00;;;;;8.59;69.80;100017.50;2025451;28;2744016;-75
2024/02/25 04:09:24;;;;;;;;;5.50;4.00;;;;;8.60;69.81;100021.81;2003204;27;2748185;-75
2024/02/25 04:10:37;;;;;;;;;4.00;4.00;;;;;8.62;69.87;100018.22;2018100;28;2754444;-75
2024/02/25 04:11:50;;;;;;;;;5.17;4.00;;;;;8.58;69.52;100010.50;2018985;28;2752360;-75
2024/02/25 04:13:03;;;;;;;;;7.00;4.50;;;;;8.62;69.90;100009.50;2026609;28;2748666;-75
2024/02/25 04:14:17;;;;;;;;;3.00;2.50;;;;;8.63;69.87;100017.31;2027670;28;2729449;-75
2024/02/25 04:15:30;;;;;;;;;3.17;3.17;;;;;8.65;69.79;100018.13;2002954;28;2749594;-75
2024/02/25 04:16:44;;;;;;;;;7.00;3.83;;;;;8.64;69.65;100010.31;1994929;28;2739881;-75
2024/02/25 04:17:57;;;;;;;;;4.83;4.17;;;;;8.65;69.79;100007.63;2019513;28;2744052;-75
2024/02/25 04:19:10;;;;;;;;;4.17;4.17;;;;;8.64;69.61;100012.94;2025503;28;2748280;-74
2024/02/25 04:20:24;;;;;;;;;8.00;3.50;;;;;8.62;69.23;100012.97;2002609;28;2742969;-74
2024/02/25 04:21:38;;;;;;;;;5.33;5.00;;;;;8.60;69.62;100012.19;2025328;28;2740930;-75
2024/02/25 04:22:51;;;;;;;;;3.00;3.00;;;;;8.61;69.59;100015.66;2026568;28;2746099;-75
2024/02/25 04:24:05;;;;;;;;;5.50;4.00;;;;;8.60;69.96;100009.56;2002691;27;2754448;-75
2024/02/25 04:25:18;;;;;;;;;3.50;3.33;;;;;8.58;69.72;100005.25;2026374;28;2750662;-75
2024/02/25 04:26:31;;;;;;;;;4.83;4.83;;;;;8.62;69.76;100012.97;2001869;28;2744095;-75
2024/02/25 04:27:45;;;;;;;;;7.50;4.83;;;;;8.57;68.95;100014.88;2025765;28;2746102;-75
2024/02/25 04:28:58;;;;;;;;;3.83;2.50;;;;;8.57;69.21;100009.63;2026014;28;2737786;-75
2024/02/25 04:30:12;;;;;;;;;2.83;2.00;;;;;8.55;69.26;100012.31;1995450;28;2735687;-74
2024/02/25 04:31:25;;;;;;;;;3.00;3.00;;;;;8.52;69.43;100012.44;2018964;28;2754475;-75
2024/02/25 04:32:40;;;;;;;;;3.00;3.00;;;;;8.50;69.28;100016.88;2026996;28;2740899;-75
2024/02/25 04:33:53;;;;;;;;;4.17;3.50;;;;;8.52;69.21;100019.47;1994519;28;2754440;-75
2024/02/25 04:35:07;;;;;;;;;5.00;5.00;;;;;8.50;69.40;100011.63;2018977;28;2733618;-75
2024/02/25 04:36:20;;;;;;;;;3.00;3.00;;;;;8.53;69.62;100015.91;2027121;28;2737777;-75
2024/02/25 04:37:31;;;;;;;;;3.33;3.33;;;;;8.54;69.42;100025.50;2000529;28;2754424;-75
2024/02/25 04:38:42;;;;;;;;;4.00;2.00;;;;;8.52;69.44;100022.91;2026130;28;2741260;-75
2024/02/25 04:39:56;;;;;;;;;4.17;3.00;;;;;8.50;68.93;100022.09;2002842;28;2752337;-75
2024/02/25 04:41:09;;;;;;;;;3.00;3.00;;;;;8.51;69.32;100026.44;2001899;28;2748256;-74
2024/02/25 04:42:22;;;;;;;;;2.17;2.17;;;;;8.52;69.41;100028.16;1994444;28;2750270;-75
2024/02/25 04:43:36;;;;;;;;;2.17;2.17;;;;;8.54;69.34;100033.34;2019909;28;2724244;-75
2024/02/25 04:44:49;;;;;;;;;6.00;3.50;;;;;8.54;69.64;100034.19;2027137;27;2738144;-75
2024/02/25 04:46:03;;;;;;;;;4.00;2.17;;;;;8.54;69.50;100035.97;2002340;27;2741952;-74
2024/02/25 04:47:16;;;;;;;;;3.67;3.17;;;;;8.51;69.30;100026.44;2025588;28;2750251;-75
2024/02/25 04:48:29;;;;;;;;;3.33;2.67;;;;;8.51;69.08;100033.44;2002773;28;2750667;-75
2024/02/25 04:49:42;;;;;;;;;4.83;4.00;;;;;8.54;69.23;100030.72;2002193;28;2747141;-75
2024/02/25 04:50:55;;;;;;;;;6.50;5.00;;;;;8.53;69.22;100029.00;1993879;28;2754440;-75
2024/02/25 04:52:10;;;;;;;;;4.00;3.00;;;;;8.55;68.98;100038.53;2018867;28;2754447;-74
2024/02/25 04:53:25;;;;;;;;;2.67;2.67;;;;;8.58;69.14;100047.16;2002518;27;2754443;-75
2024/02/25 04:54:38;;;;;;;;;4.50;4.50;;;;;8.55;69.19;100041.13;2002375;28;2733623;-75
2024/02/25 04:55:52;;;;;;;;;6.50;5.00;;;;;8.59;69.21;100038.44;2003233;28;2741951;-75
2024/02/25 04:57:05;;;;;;;;;5.17;5.17;;;;;8.57;69.38;100032.38;2003379;28;2746559;-75
2024/02/25 04:58:18;;;;;;;;;4.83;4.83;;;;;8.57;69.14;100029.75;2003047;28;2739880;-75
2024/02/25 04:59:32;;;;;;;;;5.00;5.00;;;;;8.55;68.85;100028.03;2026003;28;2739169;-75
2024/02/25 05:00:46;;;;;;;;;5.50;3.17;;;;;8.56;69.28;100023.66;2002482;28;2752355;-75
2024/02/25 05:01:59;;;;;;;;;5.67;5.00;;;;;8.53;69.13;100027.25;2003086;27;2748226;-75
2024/02/25 05:03:12;;;;;;;;;6.00;5.17;;;;;8.54;69.37;100020.25;2026489;27;2741945;-75
2024/02/25 05:04:25;;;;;;;;;5.33;3.83;;;;;8.51;69.37;100021.22;2025858;28;2735678;-75
2024/02/25 05:05:38;;;;;;;;;4.00;3.67;;;;;8.52;69.49;100017.66;2025665;28;2746138;-75
2024/02/25 05:06:52;;;;;;;;;5.17;4.00;;;;;8.54;69.37;100013.22;2002898;28;2737753;-75
2024/02/25 05:08:05;;;;;;;;;5.00;5.00;;;;;8.53;69.25;100019.38;2015722;28;2754425;-75
2024/02/25 05:09:18;;;;;;;;;4.83;4.00;;;;;8.52;68.99;100015.03;2017857;28;2737798;-75
2024/02/25 05:10:31;;;;;;;;;5.00;3.50;;;;;8.53;69.42;100022.00;2025295;28;2754916;-75
2024/02/25 05:11:44;;;;;;;;;5.50;5.50;;;;;8.50;69.62;100022.09;2024810;28;2749218;-75
2024/02/25 05:12:58;;;;;;;;;3.33;3.00;;;;;8.54;69.67;100022.88;2015988;28;2754471;-75
2024/02/25 05:14:11;;;;;;;;;4.83;4.00;;;;;8.54;69.21;100015.84;2018544;28;2741935;-75
2024/02/25 05:15:24;;;;;;;;;4.33;4.33;;;;;8.52;69.42;100007.19;2025280;28;2754456;-75
2024/02/25 05:16:35;;;;;;;;;4.00;4.00;;;;;8.52;69.68;100007.19;1977008;28;2749318;-75
2024/02/25 05:17:46;;;;;;;;;3.00;3.00;;;;;8.54;69.54;100009.78;2025421;27;2749617;-75
2024/02/25 05:18:59;;;;;;;;;6.83;5.17;;;;;8.55;69.24;100012.31;2020683;28;2754471;-75
2024/02/25 05:20:12;;;;;;;;;5.83;4.67;;;;;8.58;69.40;100015.75;2019807;28;2754456;-75
2024/02/25 05:21:26;;;;;;;;;2.83;1.00;;;;;8.59;69.46;100018.34;2027672;28;2729480;-75
2024/02/25 05:22:39;;;;;;;;;5.67;3.83;;;;;8.59;70.01;100012.25;2025999;27;2745092;-75
2024/02/25 05:23:52;;;;;;;;;5.33;4.50;;;;;8.60;69.70;100016.56;2011480;28;2744011;-75
2024/02/25 05:25:06;;;;;;;;;5.83;4.17;;;;;8.61;69.70;100007.81;1989112;28;2752364;-75
2024/02/25 05:26:19;;;;;;;;;4.33;4.00;;;;;8.64;69.51;100015.56;2025821;28;2744469;-75
2024/02/25 05:27:35;;;;;;;;;5.33;5.00;;;;;8.65;69.64;100017.25;1999482;28;2743018;-75
2024/02/25 05:28:49;;;;;;;;;7.50;5.33;;;;;8.62;69.55;100014.75;2025582;27;2754451;-75
2024/02/25 05:30:05;;;;;;;;;8.50;6.83;;;;;8.65;69.50;100014.63;2001549;28;2746121;-75
2024/02/25 05:31:18;;;;;;;;;5.67;4.83;;;;;8.63;69.77;100013.84;2025457;28;2750295;-75
2024/02/25 05:32:32;;;;;;;;;9.00;6.33;;;;;8.65;69.90;100012.00;2003489;28;2739868;-75
2024/02/25 05:33:45;;;;;;;;;7.50;6.00;;;;;8.68;70.06;100018.91;2002852;28;2748182;-75
2024/02/25 05:34:58;;;;;;;;;6.67;5.00;;;;;8.70;69.85;100020.56;1993558;28;2748206;-75
2024/02/25 05:36:11;;;;;;;;;7.00;5.00;;;;;8.68;69.88;100011.91;2019524;28;2746095;-75